Time;durP1;ratioP1;P1;durP2;ratioP2;P2;SDS_P1;SDS_P2;PMS_P1;PMS_P2;Temp;Humidity;BMP_temperature;BMP_pressure;BME280_temperature;BME280_humidity;BME280_pressure;Samples;Min_cycle;Max_cycle;Signal;HPM_P1;HPM_P2
2022/09/28 02:46:16;;;;;;;13.43;12.10;;;;;;;;;;5062894;28;20205;-93
2022/09/28 02:49:25;;;;;;;;;;;;;;;;;;;;;
2022/09/28 03:03:52;;;;;;;;;;;;;;;;;;;;;
2022/09/28 03:06:52;;;;;;;21.20;17.83;;;;;;;;;;4920057;29;20287;-92
2022/09/28 03:09:44;;;;;;;24.50;17.10;;;;;;;;;;4922067;29;20195;-92
2022/09/28 03:12:50;;;;;;;20.17;17.35;;;;;;;;;;4888633;29;20428;-93
2022/09/28 03:15:39;;;;;;;19.43;16.30;;;;;;;;;;4865872;29;20517;-93
2022/09/28 03:18:29;;;;;;;22.42;17.27;;;;;;;;;;4900671;29;20527;-93
2022/09/28 03:20:58;;;;;;;20.60;18.38;;;;;;;;;;5009397;28;20185;-92
2022/09/28 03:23:40;;;;;;;25.20;19.17;;;;;;;;;;5019781;28;20207;-94
2022/09/28 03:29:06;;;;;;;21.77;18.00;;;;;;;;;;5007403;28;20180;-92
2022/09/28 03:31:58;;;;;;;24.15;18.30;;;;;;;;;;5047158;28;20610;-92
2022/09/28 03:34:27;;;;;;;23.23;17.73;;;;;;;;;;5028861;28;20176;-93
2022/09/28 03:37:01;;;;;;;21.52;17.67;;;;;;;;;;5034013;28;20187;-92
2022/09/28 03:39:29;;;;;;;25.60;19.77;;;;;;;;;;5002493;28;20364;-94
2022/09/28 03:52:46;;;;;;;26.98;18.00;;;;;;;;;;5617008;22;20484;-91
2022/09/28 04:17:06;;;;;;;26.00;17.63;;;;;;;;;;5406280;22;20840;-94
2022/09/28 04:38:27;;;;;;;25.67;19.60;;;;;;;;;;5056167;22;21303;-91
2022/09/28 04:59:28;;;;;;;27.42;21.58;;;;;;;;;;5627869;22;20221;-91
2022/09/28 05:12:55;;;;;;;25.90;22.40;;;;;;;;;;5602687;23;20518;-93
2022/09/28 05:37:12;;;;;;;29.90;23.23;;;;;;;;;;5355354;22;20226;-89
2022/09/28 05:39:44;;;;;;;31.30;22.53;;;;;;;;;;5296673;22;21466;-90
2022/09/28 05:44:49;;;;;;;27.90;22.00;;;;;;;;;;5251115;22;20487;-89
2022/09/28 05:57:37;;;;;;;25.33;21.83;;;;;;;;;;5030304;28;20482;-87
2022/09/28 06:00:12;;;;;;;29.23;23.40;;;;;;;;;;5010672;28;20970;-89
2022/09/28 06:02:40;;;;;;;27.23;21.23;;;;;;;;;;4995711;28;20867;-90
2022/09/28 06:05:06;;;;;;;25.37;21.77;;;;;;;;;;5009794;28;20448;-88
2022/09/28 06:07:36;;;;;;;29.03;22.70;;;;;;;;;;4994960;28;20419;-90
2022/09/28 06:17:58;;;;;;;28.00;22.70;;;;;;;;;;5054872;28;20481;-95
2022/09/28 06:20:25;;;;;;;27.53;22.77;;;;;;;;;;5036598;28;20454;-92
2022/09/28 06:22:56;;;;;;;25.87;22.20;;;;;;;;;;5054803;28;20478;-94
2022/09/28 06:25:27;;;;;;;33.40;22.67;;;;;;;;;;5021489;28;20451;-91
2022/09/28 06:27:56;;;;;;;29.00;23.37;;;;;;;;;;5017271;28;20442;-92
2022/09/28 06:30:25;;;;;;;26.25;21.85;;;;;;;;;;5036272;28;20478;-94
2022/09/28 06:32:56;;;;;;;33.13;23.70;;;;;;;;;;5302921;22;20230;-96
2022/09/28 06:35:23;;;;;;;33.40;24.60;;;;;;;;;;5404078;22;20502;-92
2022/09/28 06:37:49;;;;;;;31.60;24.63;;;;;;;;;;5105664;28;20445;-94
2022/09/28 06:40:15;;;;;;;31.17;23.80;;;;;;;;;;5113055;28;20800;-92
2022/09/28 06:42:44;;;;;;;30.37;24.50;;;;;;;;;;5081612;28;20516;-93
2022/09/28 06:45:12;;;;;;;30.80;25.60;;;;;;;;;;5106798;28;20420;-94
2022/09/28 06:47:40;;;;;;;34.63;24.40;;;;;;;;;;5099523;28;20522;-92
2022/09/28 06:50:11;;;;;;;29.38;24.15;;;;;;;;;;5108788;28;20213;-90
2022/09/28 06:52:40;;;;;;;29.60;23.40;;;;;;;;;;5074901;28;20261;-95
2022/09/28 06:55:06;;;;;;;27.67;22.77;;;;;;;;;;5090498;28;20412;-91
2022/09/28 06:57:35;;;;;;;26.30;22.63;;;;;;;;;;5071094;28;20438;-89
2022/09/28 07:00:01;;;;;;;28.47;24.33;;;;;;;;;;5092108;28;20933;-94
2022/09/28 07:02:27;;;;;;;31.77;22.45;;;;;;;;;;5067152;28;20494;-92
2022/09/28 07:04:53;;;;;;;28.93;22.57;;;;;;;;;;5089686;28;20484;-92
2022/09/28 07:07:25;;;;;;;32.30;25.23;;;;;;;;;;5073838;28;20450;-92
2022/09/28 07:10:04;;;;;;;29.53;23.00;;;;;;;;;;5091499;28;20179;-91
2022/09/28 07:12:33;;;;;;;33.00;25.47;;;;;;;;;;5069022;28;20436;-91
2022/09/28 07:15:03;;;;;;;28.05;23.08;;;;;;;;;;5057450;28;20447;-91
2022/09/28 07:17:46;;;;;;;32.17;26.00;;;;;;;;;;5065841;28;20182;-92
2022/09/28 07:20:12;;;;;;;31.33;21.10;;;;;;;;;;5278294;22;20189;-91
2022/09/28 07:22:38;;;;;;;27.83;20.33;;;;;;;;;;5387464;22;20804;-89
2022/09/28 07:25:13;;;;;;;29.30;22.67;;;;;;;;;;5017484;28;20435;-88
2022/09/28 07:33:09;;;;;;;21.70;19.37;;;;;;;;;;5230651;22;20483;-91
2022/09/28 07:35:35;;;;;;;26.30;19.75;;;;;;;;;;5032040;28;20462;-90
2022/09/28 07:38:05;;;;;;;22.37;19.20;;;;;;;;;;5035974;28;20567;-91
2022/09/28 07:43:38;;;;;;;;;;;;;;;;;;;;;
2022/09/28 07:46:15;;;;;;;23.10;19.47;;;;;;;;;;5057756;28;20475;-92
2022/09/28 07:48:44;;;;;;;26.90;19.40;;;;;;;;;;5032377;28;20440;-90
2022/09/28 07:51:21;;;;;;;22.90;19.45;;;;;;;;;;5049215;28;20569;-93
2022/09/28 07:53:57;;;;;;;24.13;19.05;;;;;;;;;;5033267;28;20172;-92
2022/09/28 07:56:24;;;;;;;23.13;20.20;;;;;;;;;;5051020;28;20180;-90
2022/09/28 07:58:52;;;;;;;23.97;21.23;;;;;;;;;;5281515;22;20437;-92
2022/09/28 08:01:18;;;;;;;21.00;16.40;;;;;;;;;;5161035;23;20609;-89
2022/09/28 08:03:45;;;;;;;20.00;17.03;;;;;;;;;;5076837;28;20472;-89
2022/09/28 08:06:13;;;;;;;27.40;17.48;;;;;;;;;;5128378;22;20497;-91
2022/09/28 08:13:55;;;;;;;18.15;16.25;;;;;;;;;;5718628;22;20193;-89
2022/09/28 08:16:21;;;;;;;21.80;18.43;;;;;;;;;;5148573;23;20301;-92
2022/09/28 08:29:21;;;;;;;17.00;14.83;;;;;;;;;;5110729;28;20478;-92
2022/09/28 08:32:28;;;;;;;15.20;13.70;;;;;;;;;;5075111;28;20548;-93
2022/09/28 08:35:01;;;;;;;15.52;13.93;;;;;;;;;;5275774;22;20236;-91
2022/09/28 08:37:29;;;;;;;16.97;15.37;;;;;;;;;;5054037;28;20250;-92
2022/09/28 08:40:00;;;;;;;18.30;16.37;;;;;;;;;;5035845;28;20485;-93
2022/09/28 08:57:14;;;;;;;18.90;16.42;;;;;;;;;;5026596;28;20194;-92
2022/09/28 08:59:54;;;;;;;21.35;17.48;;;;;;;;;;4988528;28;20220;-88
2022/09/28 09:02:46;;;;;;;20.47;18.13;;;;;;;;;;5009330;28;20181;-91
2022/09/28 09:05:17;;;;;;;21.25;17.90;;;;;;;;;;5014109;28;20424;-88
2022/09/28 09:08:28;;;;;;;20.50;18.50;;;;;;;;;;5021916;23;20181;-91
2022/09/28 09:11:10;;;;;;;;;;;;;;;;;;;;;
2022/09/28 09:13:55;;;;;;;19.17;17.20;;;;;;;;;;5088442;28;20234;-91
2022/09/28 09:16:59;;;;;;;18.80;16.10;;;;;;;;;;5090766;28;20505;-91
2022/09/28 09:19:58;;;;;;;;;;;;;;;;;;;;;
2022/09/28 09:22:37;;;;;;;18.20;16.37;;;;;;;;;;5094426;28;20447;-92
2022/09/28 09:25:15;;;;;;;17.33;14.37;;;;;;;;;;5073039;28;20440;-94
2022/09/28 09:27:54;;;;;;;16.30;14.90;;;;;;;;;;5115145;28;20423;-90
2022/09/28 09:30:30;;;;;;;17.40;15.70;;;;;;;;;;5075562;28;20435;-91
2022/09/28 09:35:36;;;;;;;13.87;12.77;;;;;;;;;;5693421;22;20458;-90
2022/09/28 09:38:31;;;;;;;12.33;11.30;;;;;;;;;;5097976;28;20432;-90
2022/09/28 09:41:26;;;;;;;11.53;10.67;;;;;;;;;;5098196;28;20439;-88
2022/09/28 09:44:19;;;;;;;11.37;10.57;;;;;;;;;;5093862;28;20549;-91
2022/09/28 09:47:06;;;;;;;11.47;10.57;;;;;;;;;;5068449;28;20436;-92
2022/09/28 09:49:45;;;;;;;10.53;9.53;;;;;;;;;;5076057;28;20424;-89
2022/09/28 09:52:23;;;;;;;13.17;12.07;;;;;;;;;;5074990;28;20459;-89
2022/09/28 10:01:05;;;;;;;11.57;10.50;;;;;;;;;;5023821;28;20455;-92
2022/09/28 10:03:33;;;;;;;10.60;9.70;;;;;;;;;;5042397;28;20520;-91
2022/09/28 10:06:08;;;;;;;9.10;8.47;;;;;;;;;;5025910;28;20439;-90
2022/09/28 10:08:40;;;;;;;9.27;8.77;;;;;;;;;;5028965;28;20493;-90
2022/09/28 10:11:20;;;;;;;9.47;8.57;;;;;;;;;;5012544;28;20443;-88
2022/09/28 10:13:49;;;;;;;7.80;7.30;;;;;;;;;;5009973;28;20522;-89
2022/09/28 10:16:17;;;;;;;8.47;8.07;;;;;;;;;;5002821;28;21048;-89
2022/09/28 10:18:43;;;;;;;7.90;7.60;;;;;;;;;;5028080;28;20841;-88
2022/09/28 10:21:17;;;;;;;7.97;7.50;;;;;;;;;;5013515;28;20611;-88
2022/09/28 10:23:44;;;;;;;7.90;7.50;;;;;;;;;;5001960;28;20465;-87
2022/09/28 10:26:13;;;;;;;9.03;8.63;;;;;;;;;;5007739;28;20462;-89
2022/09/28 10:28:40;;;;;;;7.90;7.40;;;;;;;;;;5032938;28;20406;-88
2022/09/28 10:31:35;;;;;;;9.70;9.00;;;;;;;;;;5005252;28;20438;-88
2022/09/28 10:34:05;;;;;;;9.83;8.80;;;;;;;;;;5014753;28;20439;-88
2022/09/28 10:37:00;;;;;;;;;;;;;;;;;;;;;
2022/09/28 10:39:35;;;;;;;8.07;7.63;;;;;;;;;;5042593;28;20466;-89
2022/09/28 10:42:12;;;;;;;8.40;7.90;;;;;;;;;;5001544;28;20427;-88
2022/09/28 10:44:48;;;;;;;9.00;8.60;;;;;;;;;;5032473;28;20498;-86
2022/09/28 11:09:04;;;;;;;7.00;6.73;;;;;;;;;;2315195;22;20549;-88
2022/09/28 11:11:36;;;;;;;5.73;5.53;;;;;;;;;;4747002;28;10000594;-88
2022/09/28 11:14:04;;;;;;;6.80;6.60;;;;;;;;;;5129466;28;20214;-92
2022/09/28 11:16:35;;;;;;;6.80;6.50;;;;;;;;;;5081453;28;20438;-92
2022/09/28 11:19:20;;;;;;;6.77;6.57;;;;;;;;;;5092659;28;20427;-89
2022/09/28 11:21:50;;;;;;;8.40;8.10;;;;;;;;;;5090351;28;20485;-90
2022/09/28 11:24:19;;;;;;;9.20;8.80;;;;;;;;;;5078804;28;20507;-91
2022/09/28 11:26:55;;;;;;;10.23;9.63;;;;;;;;;;5080508;28;20444;-89
2022/09/28 11:29:35;;;;;;;10.37;9.77;;;;;;;;;;5067935;28;20440;-92
2022/09/28 11:47:41;;;;;;;8.60;8.10;;;;;;;;;;4750430;26;20498;-89
2022/09/28 11:50:13;;;;;;;8.60;8.10;;;;;;;;;;5100113;28;20431;-87
2022/09/28 11:52:43;;;;;;;8.33;7.70;;;;;;;;;;5062352;28;21158;-89
2022/09/28 11:55:17;;;;;;;8.40;8.00;;;;;;;;;;5100615;28;20435;-89
2022/09/28 11:57:46;;;;;;;8.23;7.60;;;;;;;;;;5094576;28;20467;-89
2022/09/28 12:00:12;;;;;;;7.30;7.10;;;;;;;;;;5091550;28;20497;-89
2022/09/28 12:02:45;;;;;;;6.77;6.37;;;;;;;;;;5057563;28;22280;-90
2022/09/28 12:08:15;;;;;;;7.30;6.90;;;;;;;;;;4518130;22;20578;-90
2022/09/28 12:10:41;;;;;;;6.90;6.70;;;;;;;;;;5052917;28;20698;-88
2022/09/28 12:13:21;;;;;;;6.80;6.50;;;;;;;;;;5055103;28;20457;-90
2022/09/28 12:21:52;;;;;;;6.03;5.83;;;;;;;;;;4176719;22;20555;-88
2022/09/28 12:24:18;;;;;;;6.00;5.80;;;;;;;;;;5063277;28;21025;-89
2022/09/28 12:27:04;;;;;;;5.93;5.73;;;;;;;;;;5087261;28;20425;-90
2022/09/28 12:29:38;;;;;;;5.00;4.90;;;;;;;;;;5074425;28;20453;-87
2022/09/28 12:32:16;;;;;;;4.97;4.77;;;;;;;;;;5051130;28;20547;-88
2022/09/28 12:34:42;;;;;;;5.90;5.70;;;;;;;;;;5053239;28;20422;-90
2022/09/28 12:37:11;;;;;;;5.63;5.37;;;;;;;;;;5080312;28;20824;-89
2022/09/28 12:39:37;;;;;;;6.10;5.40;;;;;;;;;;5093926;28;20432;-89
2022/09/28 12:42:24;;;;;;;4.40;4.10;;;;;;;;;;5071510;28;20871;-90
2022/09/28 12:44:55;;;;;;;4.50;4.40;;;;;;;;;;5092030;28;20442;-89
2022/09/28 12:47:46;;;;;;;5.00;4.63;;;;;;;;;;5054258;28;20418;-90
2022/09/28 12:50:18;;;;;;;4.73;4.60;;;;;;;;;;5053831;28;20429;-91
2022/09/28 12:52:44;;;;;;;5.13;4.93;;;;;;;;;;5074665;28;20851;-91
2022/09/28 12:55:28;;;;;;;5.60;4.80;;;;;;;;;;5096155;28;20428;-90
2022/09/28 12:58:14;;;;;;;4.30;4.10;;;;;;;;;;5067461;28;20422;-92
2022/09/28 13:01:14;;;;;;;5.43;5.13;;;;;;;;;;5076957;28;20520;-95
2022/09/28 13:17:25;;;;;;;4.83;4.63;;;;;;;;;;4902738;22;10002106;-90
2022/09/28 13:27:52;;;;;;;3.93;3.83;;;;;;;;;;4320254;22;20484;-90
2022/09/28 13:30:29;;;;;;;5.20;4.70;;;;;;;;;;5052337;28;20438;-88
2022/09/28 13:33:27;;;;;;;;;;;;;;;;;;;;;
2022/09/28 13:36:12;;;;;;;3.27;3.17;;;;;;;;;;5070173;28;20489;-91
2022/09/28 13:38:51;;;;;;;4.80;4.70;;;;;;;;;;5051692;28;20441;-91
2022/09/28 13:44:41;;;;;;;3.70;3.70;;;;;;;;;;5064778;28;20480;-92
2022/09/28 13:47:16;;;;;;;3.40;3.30;;;;;;;;;;5050318;28;20437;-90
2022/09/28 13:50:01;;;;;;;3.63;3.63;;;;;;;;;;5065932;28;20413;-90
2022/09/28 13:52:37;;;;;;;4.10;3.90;;;;;;;;;;5071246;28;20458;-91
2022/09/28 13:55:36;;;;;;;;;;;;;;;;;;;;;
2022/09/28 13:58:35;;;;;;;3.83;3.83;;;;;;;;;;5071265;28;20478;-91
2022/09/28 14:01:11;;;;;;;4.00;3.80;;;;;;;;;;5058845;28;20497;-89
2022/09/28 14:04:06;;;;;;;;;;;;;;;;;;;;;
2022/09/28 14:06:43;;;;;;;4.27;3.90;;;;;;;;;;5045612;28;20470;-88
2022/09/28 14:09:30;;;;;;;3.73;3.57;;;;;;;;;;5049548;28;20414;-92
2022/09/28 14:12:25;;;;;;;4.10;3.90;;;;;;;;;;5054409;28;20422;-88
2022/09/28 14:14:51;;;;;;;3.93;3.90;;;;;;;;;;5034295;28;20429;-88
2022/09/28 14:17:21;;;;;;;4.10;4.00;;;;;;;;;;5039448;28;20779;-89
2022/09/28 14:20:00;;;;;;;5.07;4.87;;;;;;;;;;5042990;28;20481;-86
2022/09/28 14:22:46;;;;;;;4.33;4.13;;;;;;;;;;5045585;28;20432;-87
2022/09/28 14:25:26;;;;;;;3.70;3.63;;;;;;;;;;5043544;28;20430;-88
2022/09/28 14:28:05;;;;;;;4.00;3.80;;;;;;;;;;5023658;28;20835;-88
2022/09/28 14:30:43;;;;;;;3.63;3.50;;;;;;;;;;5034153;28;20430;-89
2022/09/28 14:33:18;;;;;;;3.00;2.90;;;;;;;;;;5024954;28;20464;-89
2022/09/28 14:35:48;;;;;;;3.50;3.20;;;;;;;;;;5045857;28;20453;-88
2022/09/28 14:41:18;;;;;;;4.87;4.53;;;;;;;;;;5041036;28;20417;-90
2022/09/28 14:44:06;;;;;;;2.43;2.43;;;;;;;;;;5037096;28;20470;-89
2022/09/28 14:49:46;;;;;;;3.07;2.97;;;;;;;;;;5041311;28;20560;-87
2022/09/28 14:55:30;;;;;;;;;;;;;;;;;;;;;
2022/09/28 15:01:14;;;;;;;2.67;2.67;;;;;;;;;;5014376;28;20548;-91
2022/09/28 15:03:49;;;;;;;3.07;2.97;;;;;;;;;;5032868;28;20484;-88
2022/09/28 15:06:15;;;;;;;3.57;3.20;;;;;;;;;;5040055;28;20473;-89
2022/09/28 15:08:46;;;;;;;4.07;3.87;;;;;;;;;;5018710;28;20401;-91
2022/09/28 15:11:28;;;;;;;3.07;3.07;;;;;;;;;;5040893;28;20774;-86
2022/09/28 15:14:14;;;;;;;2.93;2.83;;;;;;;;;;5020736;28;20426;-89
2022/09/28 15:16:43;;;;;;;3.10;3.00;;;;;;;;;;5019753;28;20526;-89
2022/09/28 15:19:14;;;;;;;3.33;3.23;;;;;;;;;;5056673;28;20847;-92
2022/09/28 15:21:42;;;;;;;3.17;3.07;;;;;;;;;;5036424;28;20448;-88
2022/09/28 15:24:55;;;;;;;3.07;3.07;;;;;;;;;;5060889;28;20457;-89
2022/09/28 15:27:28;;;;;;;3.17;3.17;;;;;;;;;;4964648;28;20466;-89
2022/09/28 15:30:24;;;;;;;;;;;;;;;;;;;;;
2022/09/28 15:32:58;;;;;;;2.70;2.70;;;;;;;;;;5054891;28;20512;-90
2022/09/28 15:35:37;;;;;;;3.03;3.03;;;;;;;;;;5057231;28;20836;-88
2022/09/28 15:38:13;;;;;;;3.40;3.40;;;;;;;;;;5054393;28;20524;-90
2022/09/28 16:50:32;;;;;;;3.00;3.00;;;;;;;;;;2655631;22;20487;-90
2022/09/28 16:55:46;;;;;;;3.30;3.20;;;;;;;;;;5024363;28;20457;-90
2022/09/28 16:58:30;;;;;;;3.33;2.90;;;;;;;;;;5019259;28;20479;-91
2022/09/28 17:01:02;;;;;;;2.80;2.70;;;;;;;;;;5014195;28;20450;-90
2022/09/28 17:03:31;;;;;;;2.33;2.33;;;;;;;;;;5014715;28;20468;-90
2022/09/28 17:05:57;;;;;;;2.77;2.67;;;;;;;;;;5018884;28;20801;-91
2022/09/28 17:08:24;;;;;;;2.63;2.50;;;;;;;;;;5004810;28;20455;-89
2022/09/28 17:10:51;;;;;;;2.23;2.23;;;;;;;;;;4674455;28;10000134;-91
2022/09/28 17:13:32;;;;;;;3.07;2.83;;;;;;;;;;5004203;28;20220;-91
2022/09/28 17:16:01;;;;;;;2.40;2.40;;;;;;;;;;4996424;28;20443;-90
2022/09/28 17:18:30;;;;;;;2.33;2.33;;;;;;;;;;5014253;28;20475;-89
2022/09/28 17:20:57;;;;;;;2.70;2.57;;;;;;;;;;5014862;28;20484;-90
2022/09/28 17:23:24;;;;;;;3.20;3.17;;;;;;;;;;5008267;28;20481;-89
2022/09/28 17:25:50;;;;;;;3.47;3.30;;;;;;;;;;5043521;28;20195;-91
2022/09/28 17:28:25;;;;;;;2.88;2.72;;;;;;;;;;5021559;28;20444;-87
2022/09/28 17:30:51;;;;;;;2.60;2.60;;;;;;;;;;5014755;28;20716;-89
2022/09/28 17:33:18;;;;;;;2.80;2.80;;;;;;;;;;5017486;28;20441;-90
2022/09/28 17:35:44;;;;;;;3.30;3.30;;;;;;;;;;5021584;28;20508;-90
2022/09/28 17:38:14;;;;;;;7.83;5.73;;;;;;;;;;5033856;28;20435;-90
2022/09/28 17:40:41;;;;;;;3.57;3.30;;;;;;;;;;5015006;28;20485;-90
2022/09/28 18:02:18;;;;;;;3.00;2.90;;;;;;;;;;4163381;22;20519;-89
2022/09/28 18:18:32;;;;;;;8.50;7.47;;;;;;;;;;1228100;22;20814;-89
2022/09/28 18:21:29;;;;;;;8.77;7.90;;;;;;;;;;5086915;28;20449;-89
2022/09/28 18:24:02;;;;;;;14.87;10.77;;;;;;;;;;5062102;28;20486;-89
2022/09/28 18:26:53;;;;;;;9.40;8.50;;;;;;;;;;5057023;28;20440;-88
2022/09/28 18:40:29;;;;;;;13.73;12.23;;;;;;;;;;5089642;26;20480;-91
2022/09/28 20:03:06;;;;;;;;;;;;;;;;;;;;;
2022/09/28 20:05:42;;;;;;;;;;;;;;;;;;;;;
2022/09/28 20:08:29;;;;;;;28.43;20.30;;;;;;;;;;5073264;28;20460;-87
2022/09/28 20:11:17;;;;;;;13.05;11.80;;;;;;;;;;5039210;28;20851;-90
2022/09/28 20:13:55;;;;;;;12.20;10.45;;;;;;;;;;5058533;28;20191;-90
2022/09/28 20:16:39;;;;;;;12.63;11.43;;;;;;;;;;5054825;28;20255;-90
2022/09/28 20:19:20;;;;;;;13.20;11.80;;;;;;;;;;5035486;28;20475;-89
2022/09/28 20:21:51;;;;;;;13.05;11.75;;;;;;;;;;5055989;28;20182;-91
2022/09/28 20:24:37;;;;;;;14.23;12.13;;;;;;;;;;5052643;28;20580;-89
2022/09/28 20:27:19;;;;;;;;;;;;;;;;;;;;;
2022/09/28 20:29:58;;;;;;;;;;;;;;;;;;;;;
2022/09/28 20:32:51;;;;;;;14.82;13.32;;;;;;;;;;5066129;28;20457;-90
2022/09/28 20:35:17;;;;;;;16.43;12.10;;;;;;;;;;5050301;28;20194;-89
2022/09/28 20:38:07;;;;;;;16.50;14.53;;;;;;;;;;5089759;28;20430;-91
2022/09/28 20:43:52;;;;;;;14.50;13.10;;;;;;;;;;4936625;29;20535;-90
2022/09/28 20:46:57;;;;;;;15.57;13.40;;;;;;;;;;4937185;29;20438;-90
2022/09/28 20:52:31;;;;;;;16.20;14.50;;;;;;;;;;4876031;29;21033;-90
2022/09/28 20:55:16;;;;;;;18.80;15.07;;;;;;;;;;4878497;29;20470;-91
2022/09/28 21:04:27;;;;;;;17.02;14.38;;;;;;;;;;4803890;29;20300;-90
2022/09/28 23:08:59;;;;;;;32.40;20.33;;;;;;;;;;5043128;22;20493;-93
2022/09/28 23:11:32;;;;;;;32.00;20.55;;;;;;;;;;5060925;28;20354;-94
2022/09/28 23:14:02;;;;;;;26.83;18.58;;;;;;;;;;5039132;28;20192;-93
2022/09/28 23:16:36;;;;;;;30.98;19.63;;;;;;;;;;5043068;28;20211;-92
2022/09/28 23:19:37;;;;;;;31.55;19.90;;;;;;;;;;5054620;28;20186;-92
2022/09/28 23:22:03;;;;;;;33.60;22.10;;;;;;;;;;5046387;28;20213;-92
2022/09/28 23:24:29;;;;;;;35.90;22.15;;;;;;;;;;5042587;28;20202;-93
2022/09/28 23:27:05;;;;;;;;;;;;;;;;;;;;;
2022/09/28 23:29:44;;;;;;;36.78;21.48;;;;;;;;;;5046437;28;20243;-93
